Time;durP1;ratioP1;P1;durP2;ratioP2;P2;SDS_P1;SDS_P2;PMS_P1;PMS_P2;Temp;Humidity;BMP_temperature;BMP_pressure;BME280_temperature;BME280_humidity;BME280_pressure;Samples;Min_cycle;Max_cycle;Signal;HPM_P1;HPM_P2
2021/08/31 00:01:48;;;;;;;4.63;3.10;;;;;;;12.00;100.00;95617.22;5023615;28;20045;-81
2021/08/31 00:04:13;;;;;;;4.43;3.03;;;;;;;12.04;100.00;95627.97;5009502;28;20057;-81
2021/08/31 00:06:39;;;;;;;5.25;3.20;;;;;;;12.24;100.00;95627.84;5007273;28;20725;-80
2021/08/31 00:09:05;;;;;;;6.07;3.35;;;;;;;12.14;100.00;95622.66;5015712;28;20488;-81
2021/08/31 00:11:30;;;;;;;6.18;3.58;;;;;;;12.18;100.00;95623.66;5010458;28;20045;-80
2021/08/31 00:13:56;;;;;;;6.57;3.67;;;;;;;12.18;100.00;95628.94;5015747;28;20076;-81
2021/08/31 00:16:21;;;;;;;10.23;4.10;;;;;;;12.22;100.00;95624.69;5024578;28;20720;-80
2021/08/31 00:18:47;;;;;;;9.15;5.07;;;;;;;12.11;100.00;95633.72;5002619;28;21540;-81
2021/08/31 00:21:13;;;;;;;10.15;5.70;;;;;;;12.08;100.00;95634.28;5006437;28;20168;-81
2021/08/31 00:23:38;;;;;;;11.00;5.88;;;;;;;12.06;100.00;95637.19;5025020;28;20060;-81
2021/08/31 00:26:04;;;;;;;13.02;5.93;;;;;;;12.00;100.00;95637.53;5027756;28;20081;-80
2021/08/31 00:28:30;;;;;;;11.57;5.70;;;;;;;11.95;100.00;95644.41;5021696;28;20160;-80
2021/08/31 00:30:55;;;;;;;13.60;5.60;;;;;;;12.04;100.00;95647.25;5016303;28;20045;-80
2021/08/31 00:33:21;;;;;;;11.80;6.80;;;;;;;11.99;100.00;95641.22;5028825;28;20430;-80
2021/08/31 00:35:47;;;;;;;13.00;6.70;;;;;;;12.03;100.00;95642.25;5023016;28;20045;-81
2021/08/31 00:38:12;;;;;;;15.52;7.00;;;;;;;11.96;100.00;95639.91;5012873;28;20046;-79
2021/08/31 00:40:37;;;;;;;15.95;7.03;;;;;;;11.90;100.00;95638.34;5017648;28;20042;-80
2021/08/31 00:43:05;;;;;;;15.75;7.72;;;;;;;11.97;100.00;95654.69;5012439;28;20042;-80
2021/08/31 00:45:30;;;;;;;14.70;7.63;;;;;;;11.98;100.00;95644.91;5026425;28;20042;-80
2021/08/31 00:47:56;;;;;;;13.77;7.70;;;;;;;12.03;100.00;95658.06;5021317;28;20117;-80
2021/08/31 00:50:22;;;;;;;14.55;7.85;;;;;;;11.97;100.00;95654.69;5026388;28;20041;-79
2021/08/31 00:52:48;;;;;;;17.05;8.18;;;;;;;11.93;100.00;95649.16;5020860;28;20498;-79
2021/08/31 00:55:14;;;;;;;14.73;7.63;;;;;;;11.99;100.00;95646.50;5012458;28;20159;-80
2021/08/31 00:57:40;;;;;;;51.95;10.45;;;;;;;11.95;100.00;95657.59;5026411;28;20037;-79
2021/08/31 01:00:12;;;;;;;14.75;8.30;;;;;;;12.05;100.00;95655.94;5028637;28;20054;-79
2021/08/31 01:02:38;;;;;;;16.88;7.82;;;;;;;12.05;100.00;95661.22;5009797;28;20521;-79
2021/08/31 01:05:05;;;;;;;18.00;9.05;;;;;;;12.08;100.00;95661.47;5029531;28;20045;-79
2021/08/31 01:07:31;;;;;;;15.98;8.32;;;;;;;12.10;100.00;95669.88;5026406;28;20418;-79
2021/08/31 01:09:59;;;;;;;16.40;7.75;;;;;;;12.03;100.00;95663.34;5010682;28;20046;-79
2021/08/31 01:12:27;;;;;;;18.77;8.88;;;;;;;12.01;100.00;95662.81;5026467;28;20049;-80
2021/08/31 01:14:53;;;;;;;17.95;9.13;;;;;;;12.12;100.00;95661.69;5027197;28;20108;-80
2021/08/31 01:17:18;;;;;;;17.73;8.88;;;;;;;12.09;100.00;95672.81;5026770;28;20049;-81
2021/08/31 01:19:44;;;;;;;22.02;9.38;;;;;;;11.99;100.00;95667.59;5027311;28;20552;-81
2021/08/31 01:22:11;;;;;;;22.50;9.73;;;;;;;11.96;100.00;95669.69;5026681;28;20550;-81
2021/08/31 01:24:41;;;;;;;23.70;10.95;;;;;;;11.98;100.00;95671.28;5015412;28;20384;-79
2021/08/31 01:27:08;;;;;;;26.17;10.52;;;;;;;12.00;100.00;95669.19;5011705;28;20049;-79
2021/08/31 01:29:35;;;;;;;23.30;11.00;;;;;;;11.94;100.00;95666.56;5029346;28;20103;-79
2021/08/31 01:32:02;;;;;;;21.50;10.75;;;;;;;12.06;100.00;95662.81;5006359;28;20100;-79
2021/08/31 01:34:28;;;;;;;19.85;10.27;;;;;;;11.99;100.00;95667.59;4998334;28;20450;-79
2021/08/31 01:36:54;;;;;;;20.05;9.98;;;;;;;12.06;100.00;95668.06;5019482;28;20049;-79
2021/08/31 01:39:19;;;;;;;23.80;10.00;;;;;;;12.00;100.00;95671.81;5028187;28;20092;-80
2021/08/31 01:41:45;;;;;;;22.77;9.98;;;;;;;12.01;100.00;95668.91;5010041;28;20350;-80
2021/08/31 01:44:10;;;;;;;20.75;9.73;;;;;;;12.01;100.00;95668.09;5004864;28;20041;-79
2021/08/31 01:46:36;;;;;;;20.25;10.10;;;;;;;11.95;100.00;95668.16;5029705;28;20038;-80
2021/08/31 01:49:02;;;;;;;23.15;10.30;;;;;;;12.03;100.00;95679.19;5024037;28;20132;-78
2021/08/31 01:51:28;;;;;;;18.98;9.48;;;;;;;12.03;100.00;95673.91;5030108;28;20048;-79
2021/08/31 01:53:53;;;;;;;24.35;10.40;;;;;;;12.00;100.00;95671.81;5023287;28;20042;-79
2021/08/31 01:56:19;;;;;;;23.17;10.05;;;;;;;11.96;100.00;95669.69;5030373;28;20392;-79
2021/08/31 01:58:44;;;;;;;24.58;10.00;;;;;;;12.01;100.00;95665.47;5013589;28;20045;-78
2021/08/31 02:01:10;;;;;;;27.00;9.95;;;;;;;12.02;100.00;95673.09;5008759;28;20042;-79
2021/08/31 02:03:37;;;;;;;20.15;10.07;;;;;;;12.04;100.00;95672.81;5030294;28;20120;-79
2021/08/31 02:06:02;;;;;;;21.08;10.25;;;;;;;12.03;100.00;95673.91;5031129;28;20041;-78
2021/08/31 02:08:28;;;;;;;25.02;10.88;;;;;;;12.05;100.00;95672.56;5028182;28;20529;-79
2021/08/31 02:10:53;;;;;;;21.20;9.77;;;;;;;12.10;100.00;95671.75;5012468;28;20045;-79
2021/08/31 02:13:19;;;;;;;20.77;10.68;;;;;;;12.03;100.00;95668.63;5032598;28;20045;-78
2021/08/31 02:15:44;;;;;;;25.45;10.18;;;;;;;11.96;100.00;95667.06;5016621;28;20519;-78
2021/08/31 02:18:10;;;;;;;22.95;10.95;;;;;;;11.92;100.00;95668.66;5029420;28;20057;-79
2021/08/31 02:20:36;;;;;;;26.95;10.95;;;;;;;11.94;100.00;95671.06;5015518;28;20049;-79
2021/08/31 02:23:02;;;;;;;22.25;11.02;;;;;;;12.08;100.00;95672.03;5030628;28;20046;-79
2021/08/31 02:25:28;;;;;;;21.27;9.85;;;;;;;12.12;100.00;95680.16;5033484;28;20049;-78
2021/08/31 02:27:53;;;;;;;18.60;10.00;;;;;;;12.12;100.00;95677.53;5033399;28;20037;-79
2021/08/31 02:30:19;;;;;;;19.73;10.23;;;;;;;12.06;100.00;95683.91;5033249;28;20092;-78
2021/08/31 02:32:46;;;;;;;18.35;9.77;;;;;;;12.07;100.00;95685.50;5013299;28;20041;-79
2021/08/31 02:35:11;;;;;;;19.10;10.13;;;;;;;12.13;100.00;95685.16;5034222;28;20052;-79
2021/08/31 02:37:37;;;;;;;18.25;9.90;;;;;;;11.97;100.00;95681.06;5015939;28;20049;-79
2021/08/31 02:40:04;;;;;;;20.90;10.55;;;;;;;11.99;100.00;95683.41;5015435;28;20041;-79
2021/08/31 02:42:30;;;;;;;20.90;9.70;;;;;;;12.02;100.00;95682.88;5023532;28;20069;-79
2021/08/31 02:44:56;;;;;;;19.95;9.68;;;;;;;12.03;100.00;95684.44;5016403;28;20049;-79
2021/08/31 02:47:22;;;;;;;20.85;9.98;;;;;;;12.03;100.00;95685.22;5013503;28;20048;-80
2021/08/31 02:49:47;;;;;;;21.50;10.90;;;;;;;11.95;100.00;95678.69;5033482;28;20046;-79
2021/08/31 02:52:13;;;;;;;21.65;10.93;;;;;;;11.89;100.00;95685.00;5012968;28;20049;-79
2021/08/31 02:54:39;;;;;;;24.88;10.43;;;;;;;11.91;100.00;95677.63;5033797;28;20487;-80
2021/08/31 02:57:04;;;;;;;19.30;9.82;;;;;;;11.91;100.00;95682.91;5032089;28;20068;-78
2021/08/31 02:59:30;;;;;;;22.70;10.15;;;;;;;11.87;100.00;95686.38;5033695;28;20041;-79
2021/08/31 03:04:22;;;;;;;22.27;10.45;;;;;;;11.91;100.00;95680.28;5032387;28;20050;-79
2021/08/31 03:06:47;;;;;;;19.40;9.55;;;;;;;12.02;100.00;95678.38;5014504;28;20536;-80
2021/08/31 03:09:13;;;;;;;19.65;9.50;;;;;;;11.96;100.00;95674.97;5032618;28;20961;-80
2021/08/31 03:11:38;;;;;;;17.67;9.55;;;;;;;11.99;100.00;95678.16;5019982;28;20049;-80
2021/08/31 03:14:04;;;;;;;18.38;9.43;;;;;;;11.94;100.00;95682.38;5011975;28;20046;-80
2021/08/31 03:16:29;;;;;;;19.83;10.05;;;;;;;11.94;100.00;95689.53;5005341;28;20112;-80
2021/08/31 03:18:55;;;;;;;20.50;10.02;;;;;;;11.88;100.00;95694.00;5024429;28;20042;-80
2021/08/31 03:21:20;;;;;;;20.10;10.10;;;;;;;11.85;100.00;95684.00;5012949;28;20074;-80
2021/08/31 03:23:46;;;;;;;19.77;9.90;;;;;;;11.91;100.00;95690.81;5030854;28;20424;-80
2021/08/31 03:26:11;;;;;;;18.38;9.18;;;;;;;11.90;100.00;95686.59;5024565;28;20046;-80
2021/08/31 03:28:37;;;;;;;17.60;9.70;;;;;;;11.87;100.00;95687.16;5011063;28;20042;-80
2021/08/31 03:31:02;;;;;;;20.48;9.45;;;;;;;11.86;100.00;95696.13;5014907;28;20244;-80
2021/08/31 03:33:28;;;;;;;19.65;9.80;;;;;;;11.85;100.00;95705.09;5032494;28;20058;-80
2021/08/31 03:35:53;;;;;;;16.13;9.02;;;;;;;11.98;100.00;95702.94;5031198;28;20152;-80
2021/08/31 03:38:19;;;;;;;17.27;9.05;;;;;;;12.07;100.00;95698.69;5029546;28;20045;-80
2021/08/31 03:40:44;;;;;;;19.70;9.63;;;;;;;11.90;100.00;95697.16;5039400;28;20037;-80
2021/08/31 03:43:10;;;;;;;17.88;8.85;;;;;;;11.88;100.00;95714.28;5023953;28;20663;-80
2021/08/31 03:45:36;;;;;;;19.05;9.38;;;;;;;11.79;100.00;95711.44;5039517;28;20498;-81
2021/08/31 03:48:01;;;;;;;19.48;9.63;;;;;;;11.78;100.00;95715.16;5023694;28;20045;-80
2021/08/31 03:50:27;;;;;;;19.50;9.63;;;;;;;11.85;100.00;95718.28;5031510;28;20557;-80
2021/08/31 03:52:52;;;;;;;18.65;9.98;;;;;;;11.79;100.00;95727.25;5023550;28;20119;-78
2021/08/31 03:55:18;;;;;;;22.13;9.15;;;;;;;11.89;100.00;95729.84;5013382;28;20522;-79
2021/08/31 03:57:43;;;;;;;17.42;9.52;;;;;;;11.78;100.00;95728.34;5029967;28;20505;-80
2021/08/31 04:00:09;;;;;;;22.65;10.90;;;;;;;11.81;100.00;95724.34;5026143;28;20125;-80
2021/08/31 04:02:36;;;;;;;27.00;10.40;;;;;;;11.90;100.00;95733.28;5033055;28;20061;-80
2021/08/31 04:05:02;;;;;;;20.27;9.93;;;;;;;11.80;100.00;95731.50;5039958;28;20052;-80
2021/08/31 04:07:28;;;;;;;20.38;9.90;;;;;;;11.77;100.00;95729.41;5029378;28;20418;-80
2021/08/31 04:09:55;;;;;;;19.67;9.95;;;;;;;11.79;100.00;95737.81;5030067;28;20037;-80
2021/08/31 04:12:21;;;;;;;21.90;10.75;;;;;;;11.74;100.00;95740.50;5030170;28;20045;-79
2021/08/31 04:14:46;;;;;;;19.15;9.95;;;;;;;11.80;100.00;95744.66;5031824;28;20081;-80
2021/08/31 04:17:12;;;;;;;25.08;11.00;;;;;;;11.74;100.00;95746.53;5021386;28;20069;-80
2021/08/31 04:19:38;;;;;;;23.60;10.27;;;;;;;11.87;100.00;95755.72;5012198;28;20081;-80
2021/08/31 04:22:04;;;;;;;21.33;10.25;;;;;;;11.84;100.00;95756.25;5001855;28;20038;-79
2021/08/31 04:24:30;;;;;;;18.45;9.68;;;;;;;11.83;100.00;95767.84;5028255;28;20045;-79
2021/08/31 04:26:55;;;;;;;23.13;10.70;;;;;;;11.84;100.00;95756.25;5027605;28;20049;-80
2021/08/31 04:29:21;;;;;;;17.77;9.98;;;;;;;11.74;100.00;95756.31;5023446;28;20038;-79
2021/08/31 04:31:46;;;;;;;20.20;9.63;;;;;;;11.82;100.00;95754.94;5008515;28;20095;-80
2021/08/31 04:34:12;;;;;;;17.77;9.25;;;;;;;11.85;100.00;95757.84;5009423;28;20037;-79
2021/08/31 04:36:38;;;;;;;15.48;8.55;;;;;;;11.84;100.00;95761.53;5028079;28;20041;-79
2021/08/31 04:39:03;;;;;;;17.55;9.30;;;;;;;11.85;100.00;95762.31;5021675;28;20053;-79
2021/08/31 04:41:28;;;;;;;18.10;9.63;;;;;;;11.84;100.00;95761.53;5028229;28;20514;-79
2021/08/31 04:43:54;;;;;;;17.63;8.60;;;;;;;11.75;100.00;95765.78;5012752;28;20073;-80
2021/08/31 04:46:20;;;;;;;18.48;9.52;;;;;;;11.77;100.00;95771.59;5009788;28;20049;-79
2021/08/31 04:48:45;;;;;;;18.35;9.13;;;;;;;11.82;100.00;95768.91;5003903;28;20705;-79
2021/08/31 04:51:11;;;;;;;16.15;8.65;;;;;;;11.89;100.00;95764.13;5020990;28;20099;-79
2021/08/31 04:53:36;;;;;;;21.05;9.35;;;;;;;11.81;100.00;95767.34;5022737;28;20095;-79
2021/08/31 04:56:02;;;;;;;18.90;9.15;;;;;;;11.79;100.00;95769.44;5021892;28;20124;-79
2021/08/31 04:58:27;;;;;;;20.35;9.38;;;;;;;11.87;100.00;95776.81;5030371;28;20042;-79
2021/08/31 05:00:53;;;;;;;17.45;9.25;;;;;;;11.86;100.00;95769.94;5025868;28;20049;-79
2021/08/31 05:03:19;;;;;;;21.35;9.88;;;;;;;11.71;100.00;95773.44;5029447;28;20041;-79
2021/08/31 05:05:44;;;;;;;19.65;9.75;;;;;;;11.76;100.00;95775.28;5028267;28;20088;-79
2021/08/31 05:08:10;;;;;;;17.98;9.73;;;;;;;11.75;100.00;95778.94;5028853;28;20041;-79
2021/08/31 05:10:35;;;;;;;19.02;9.57;;;;;;;11.70;100.00;95776.34;5028928;28;20037;-79
2021/08/31 05:13:01;;;;;;;19.02;9.00;;;;;;;11.74;100.00;95777.41;5028906;28;20045;-79
2021/08/31 05:15:28;;;;;;;20.30;10.10;;;;;;;11.72;100.00;95779.50;5012327;28;20049;-78
2021/08/31 05:17:54;;;;;;;17.27;9.27;;;;;;;11.64;100.00;95782.69;5025752;28;20042;-78
2021/08/31 05:20:19;;;;;;;18.27;9.23;;;;;;;11.86;100.00;95780.50;5027953;28;20068;-81
2021/08/31 05:22:45;;;;;;;16.98;9.40;;;;;;;11.84;100.00;95787.09;5018936;28;20046;-81
2021/08/31 05:25:10;;;;;;;15.70;8.88;;;;;;;11.76;100.00;95785.81;5022507;28;20426;-82
2021/08/31 05:27:36;;;;;;;16.80;8.65;;;;;;;11.80;100.00;95786.84;5027264;28;20053;-80
2021/08/31 05:30:02;;;;;;;19.50;9.23;;;;;;;11.85;100.00;95789.50;5012218;28;20061;-79
2021/08/31 05:32:27;;;;;;;17.20;9.18;;;;;;;11.86;100.00;95785.00;5024154;28;20116;-79
2021/08/31 05:34:53;;;;;;;16.50;8.98;;;;;;;11.87;100.00;95792.63;5030354;28;20049;-79
2021/08/31 05:37:19;;;;;;;17.00;8.60;;;;;;;11.86;100.00;95793.69;5010391;28;20438;-79
2021/08/31 05:39:44;;;;;;;14.43;8.40;;;;;;;11.95;100.00;95797.38;5028589;28;20070;-79
2021/08/31 05:42:11;;;;;;;18.30;9.32;;;;;;;11.94;100.00;95798.44;5013113;28;20053;-79
2021/08/31 05:44:38;;;;;;;15.07;8.48;;;;;;;12.04;100.00;95802.88;5025630;28;20440;-79
2021/08/31 05:47:05;;;;;;;16.48;9.10;;;;;;;11.94;100.00;95795.78;5028619;28;20407;-78
2021/08/31 05:49:32;;;;;;;16.25;8.18;;;;;;;11.87;100.00;95797.91;5029169;28;20073;-78
2021/08/31 05:51:58;;;;;;;20.15;10.00;;;;;;;12.01;100.00;95798.16;5020899;28;20510;-78
2021/08/31 05:54:25;;;;;;;17.58;9.25;;;;;;;12.14;100.00;95804.69;5022490;28;20699;-79
2021/08/31 05:56:55;;;;;;;16.42;9.50;;;;;;;12.05;100.00;95798.38;5032820;28;20042;-78
2021/08/31 05:59:21;;;;;;;17.60;9.30;;;;;;;12.04;100.00;95802.88;5033501;28;20117;-78
2021/08/31 06:01:46;;;;;;;19.55;9.43;;;;;;;12.07;100.00;95807.59;5028385;28;20127;-80
2021/08/31 06:04:12;;;;;;;23.23;10.20;;;;;;;12.01;100.00;95799.97;5014015;28;20059;-79
2021/08/31 06:06:38;;;;;;;18.42;10.07;;;;;;;12.16;100.00;95799.13;5025191;28;20029;-79
2021/08/31 06:09:05;;;;;;;18.00;9.75;;;;;;;12.21;100.00;95807.81;5032648;28;20052;-78
2021/08/31 06:11:35;;;;;;;19.65;10.00;;;;;;;12.12;100.00;95810.22;5011669;28;20049;-78
2021/08/31 06:14:00;;;;;;;17.95;9.80;;;;;;;12.03;100.00;95805.78;5000492;28;20049;-79
2021/08/31 06:16:26;;;;;;;19.27;10.02;;;;;;;12.13;100.00;95811.00;5033431;28;20046;-79
2021/08/31 06:18:51;;;;;;;17.55;9.43;;;;;;;12.19;100.00;95812.56;5028846;28;20049;-79
2021/08/31 06:21:17;;;;;;;18.13;10.40;;;;;;;12.13;100.00;95811.00;5031713;28;20891;-79
2021/08/31 06:23:42;;;;;;;18.15;9.90;;;;;;;12.07;100.00;95817.38;5020057;28;20128;-79
2021/08/31 06:26:08;;;;;;;18.05;9.57;;;;;;;12.16;100.00;95815.75;5033041;28;20045;-79
2021/08/31 06:28:33;;;;;;;19.77;10.73;;;;;;;12.20;100.00;95811.50;5014115;28;20041;-79
2021/08/31 06:30:59;;;;;;;24.65;10.40;;;;;;;12.25;100.00;95808.81;5032113;28;20049;-80
2021/08/31 06:33:25;;;;;;;20.17;10.40;;;;;;;12.35;100.00;95815.13;5005957;28;20045;-79
2021/08/31 06:35:51;;;;;;;17.25;9.98;;;;;;;12.34;100.00;95821.44;5032971;28;20042;-80
2021/08/31 06:38:16;;;;;;;17.85;10.40;;;;;;;12.17;100.00;95825.25;5020895;28;20049;-79
2021/08/31 06:40:42;;;;;;;18.38;10.30;;;;;;;12.11;100.00;95813.94;5026003;28;20037;-79
2021/08/31 06:43:07;;;;;;;24.05;10.88;;;;;;;12.12;100.00;95825.25;5028907;28;20037;-79
2021/08/31 06:45:33;;;;;;;18.45;10.15;;;;;;;12.20;100.00;95827.34;5033272;28;20144;-78
2021/08/31 06:47:59;;;;;;;18.30;9.82;;;;;;;12.11;100.00;95828.94;5029246;28;20510;-78
2021/08/31 06:50:24;;;;;;;22.73;10.85;;;;;;;12.13;100.00;95821.56;5009095;28;20041;-79
2021/08/31 06:52:50;;;;;;;18.27;10.50;;;;;;;12.20;100.00;95827.34;5020243;28;20510;-79
2021/08/31 06:55:16;;;;;;;17.77;10.18;;;;;;;12.14;100.00;95828.44;5008368;28;20080;-79
2021/08/31 06:57:42;;;;;;;18.38;10.02;;;;;;;12.23;100.00;95826.78;5011347;28;20037;-81
2021/08/31 07:00:09;;;;;;;21.55;9.80;;;;;;;12.22;100.00;95825.19;5004426;28;20045;-79
2021/08/31 07:02:34;;;;;;;17.77;10.30;;;;;;;12.21;100.00;95818.38;5024797;28;20092;-84
2021/08/31 07:05:00;;;;;;;20.85;9.85;;;;;;;12.36;100.00;95829.91;4994019;28;20454;-82
2021/08/31 07:07:25;;;;;;;19.08;10.07;;;;;;;12.33;100.00;95825.16;5011046;28;20048;-81
2021/08/31 07:09:51;;;;;;;19.65;9.85;;;;;;;12.37;100.00;95828.81;5013730;28;20071;-79
2021/08/31 07:12:17;;;;;;;19.75;10.15;;;;;;;12.21;100.00;95828.13;5020985;28;20042;-80
2021/08/31 07:14:42;;;;;;;29.83;10.48;;;;;;;12.14;100.00;95838.97;5018997;28;20041;-80
2021/08/31 07:17:08;;;;;;;20.92;10.32;;;;;;;12.18;100.00;95849.75;5007636;28;20049;-79
2021/08/31 07:19:33;;;;;;;22.27;10.57;;;;;;;12.13;100.00;95837.41;5023656;28;20045;-80
2021/08/31 07:21:59;;;;;;;20.75;9.70;;;;;;;12.25;100.00;95835.22;5012999;28;20041;-81
2021/08/31 07:24:24;;;;;;;18.42;9.80;;;;;;;12.15;100.00;95835.25;5017410;28;20482;-80
2021/08/31 07:26:50;;;;;;;17.65;9.88;;;;;;;12.17;100.00;95850.81;5009798;28;20564;-79
2021/08/31 07:29:15;;;;;;;23.30;10.23;;;;;;;12.08;100.00;95855.88;5026268;28;20045;-79
2021/08/31 07:31:42;;;;;;;18.02;9.55;;;;;;;12.13;100.00;95858.50;5022601;28;20057;-79
2021/08/31 07:34:08;;;;;;;21.15;10.07;;;;;;;12.13;100.00;95859.28;5023193;28;20136;-80
2021/08/31 07:36:33;;;;;;;22.85;10.25;;;;;;;12.13;100.00;95855.84;5024005;28;20112;-85
2021/08/31 07:38:59;;;;;;;18.33;9.30;;;;;;;12.14;100.00;95862.72;5017041;28;20044;-80
2021/08/31 07:41:25;;;;;;;17.02;8.55;;;;;;;12.24;100.00;95860.03;5024508;28;20041;-79
2021/08/31 07:43:51;;;;;;;17.27;8.68;;;;;;;12.19;100.00;95857.41;5008159;28;20176;-79
2021/08/31 07:46:18;;;;;;;17.23;9.68;;;;;;;12.35;100.00;95857.34;5022846;28;20041;-83
2021/08/31 07:48:44;;;;;;;17.55;8.93;;;;;;;12.42;100.00;95860.47;5008326;28;20136;-79
2021/08/31 07:51:11;;;;;;;19.30;10.00;;;;;;;12.35;100.00;95866.03;5007116;28;20033;-79
2021/08/31 07:53:37;;;;;;;19.77;9.43;;;;;;;12.34;100.00;95863.69;5009701;28;20068;-80
2021/08/31 07:56:02;;;;;;;19.00;9.77;;;;;;;12.26;100.00;95862.41;5028483;28;20060;-81
2021/08/31 07:58:28;;;;;;;18.55;10.45;;;;;;;12.33;100.00;95872.69;5020872;28;20042;-80
2021/08/31 08:00:54;;;;;;;19.55;10.40;;;;;;;12.35;100.00;95865.25;5027510;28;20052;-80
2021/08/31 08:03:20;;;;;;;20.45;10.02;;;;;;;12.33;100.00;95872.69;5012496;28;20045;-81
2021/08/31 08:05:45;;;;;;;22.38;10.73;;;;;;;12.36;100.00;95872.91;5009656;28;20593;-81
2021/08/31 08:08:11;;;;;;;23.20;11.18;;;;;;;12.28;100.00;95871.63;5007965;28;20100;-80
2021/08/31 08:10:36;;;;;;;20.75;10.93;;;;;;;12.28;100.00;95876.91;5023229;28;20049;-79
2021/08/31 08:13:02;;;;;;;19.70;10.88;;;;;;;12.27;100.00;95867.41;5011749;28;20060;-81
2021/08/31 08:15:27;;;;;;;21.67;11.27;;;;;;;12.32;100.00;95879.00;5007427;28;20121;-82
2021/08/31 08:17:53;;;;;;;21.40;10.60;;;;;;;12.45;100.00;95881.81;5022201;28;20049;-80
2021/08/31 08:20:18;;;;;;;22.10;11.43;;;;;;;12.39;100.00;95888.19;5033440;28;20037;-80
2021/08/31 08:22:44;;;;;;;24.63;11.90;;;;;;;12.36;100.00;95893.25;5003768;28;20112;-80
2021/08/31 08:25:10;;;;;;;22.80;11.95;;;;;;;12.22;100.00;95888.53;5029576;28;20514;-80
2021/08/31 08:27:36;;;;;;;25.90;11.82;;;;;;;12.29;100.00;95899.56;5012070;28;20044;-79
2021/08/31 08:30:03;;;;;;;25.52;12.65;;;;;;;12.24;100.00;95904.91;5007629;28;20078;-80
2021/08/31 08:32:28;;;;;;;24.25;11.35;;;;;;;12.31;100.00;95901.94;5024086;28;20068;-78
2021/08/31 08:34:54;;;;;;;17.58;9.52;;;;;;;12.21;100.00;95902.78;5010652;28;20069;-79
2021/08/31 08:37:20;;;;;;;23.40;10.98;;;;;;;12.16;100.00;95908.09;5009753;28;20040;-79
2021/08/31 08:39:45;;;;;;;24.25;12.48;;;;;;;12.15;100.00;95901.22;5029167;28;20034;-78
2021/08/31 08:42:12;;;;;;;25.20;12.45;;;;;;;12.25;100.00;95903.81;5011861;28;20080;-79
2021/08/31 08:44:38;;;;;;;27.05;12.55;;;;;;;12.36;100.00;95914.34;5010764;28;20045;-79
2021/08/31 08:47:04;;;;;;;27.40;13.15;;;;;;;12.46;100.00;95901.09;5024554;28;20099;-79
2021/08/31 08:49:29;;;;;;;28.90;13.90;;;;;;;12.50;100.00;95910.06;5028604;28;20049;-80
2021/08/31 08:51:57;;;;;;;34.60;13.18;;;;;;;12.44;100.00;95916.41;5023960;28;20046;-80
2021/08/31 08:54:23;;;;;;;26.63;13.93;;;;;;;12.41;100.00;95911.69;5011671;28;20056;-80
2021/08/31 08:56:51;;;;;;;24.33;12.70;;;;;;;12.38;100.00;95909.59;5027835;28;20117;-80
2021/08/31 08:59:18;;;;;;;24.55;12.68;;;;;;;12.27;100.00;95900.94;5028169;28;20048;-80
2021/08/31 09:01:49;;;;;;;23.20;12.80;;;;;;;12.38;100.00;95917.50;5008803;28;20057;-79
2021/08/31 09:04:17;;;;;;;29.90;13.20;;;;;;;12.50;100.00;95923.25;5005236;28;20034;-79
2021/08/31 09:06:46;;;;;;;23.25;11.93;;;;;;;12.49;100.00;95919.03;5026113;28;20095;-78
2021/08/31 09:09:12;;;;;;;26.95;13.35;;;;;;;12.53;100.00;95920.06;5022731;28;20067;-85
2021/08/31 09:11:48;;;;;;;25.92;12.32;;;;;;;12.60;100.00;95920.56;5008468;28;20041;-81
2021/08/31 09:14:20;;;;;;;25.08;12.57;;;;;;;12.47;100.00;95916.66;5027339;28;20053;-81
2021/08/31 09:16:48;;;;;;;23.02;12.23;;;;;;;12.51;100.00;95916.91;5009120;28;20033;-80
2021/08/31 09:19:14;;;;;;;22.25;12.68;;;;;;;12.59;100.00;95918.22;5019951;28;20037;-80
2021/08/31 09:21:40;;;;;;;22.52;12.38;;;;;;;12.60;100.00;95910.00;5019575;28;20558;-80
2021/08/31 09:24:06;;;;;;;23.55;13.48;;;;;;;12.74;100.00;95914.69;5022029;28;20045;-79
2021/08/31 09:26:36;;;;;;;22.95;13.35;;;;;;;12.88;100.00;95920.94;5024731;28;20037;-79
2021/08/31 09:29:10;;;;;;;28.13;12.80;;;;;;;13.04;100.00;95918.22;5007134;28;20092;-80
2021/08/31 09:31:56;;;;;;;22.98;12.85;;;;;;;13.24;100.00;95928.63;5022444;28;20061;-80
2021/08/31 09:34:40;;;;;;;22.85;12.65;;;;;;;13.49;100.00;95929.56;5008345;28;20495;-80
2021/08/31 09:37:27;;;;;;;22.93;12.07;;;;;;;13.45;100.00;95926.66;5023817;28;20041;-78
2021/08/31 09:40:13;;;;;;;16.65;10.30;;;;;;;13.36;100.00;95935.44;5024166;28;20749;-79
2021/08/31 09:42:55;;;;;;;18.98;9.90;;;;;;;13.32;100.00;95919.34;5025800;28;20044;-80
2021/08/31 09:45:33;;;;;;;20.38;10.02;;;;;;;13.14;100.00;95934.00;5018787;28;20046;-83
2021/08/31 09:48:00;;;;;;;16.85;10.32;;;;;;;13.15;100.00;95935.56;5022857;28;20049;-79
2021/08/31 09:50:29;;;;;;;19.92;10.38;;;;;;;13.15;100.00;95930.28;5018305;28;20042;-82
2021/08/31 09:53:01;;;;;;;19.42;10.85;;;;;;;13.29;100.00;95928.59;5022696;28;20132;-78
2021/08/31 09:55:26;;;;;;;26.55;11.75;;;;;;;13.46;100.00;95919.50;5020958;28;20045;-81
2021/08/31 09:58:06;;;;;;;21.88;11.85;;;;;;;13.80;100.00;95930.03;5006145;28;20056;-80
2021/08/31 10:00:32;;;;;;;16.83;11.23;;;;;;;14.18;100.00;95924.13;5022912;28;20049;-80
2021/08/31 10:02:57;;;;;;;21.63;11.68;;;;;;;14.30;100.00;95927.16;5023807;28;20158;-80
2021/08/31 10:05:24;;;;;;;17.63;10.60;;;;;;;14.18;100.00;95929.41;5027174;28;20128;-80
2021/08/31 10:07:50;;;;;;;14.43;9.93;;;;;;;13.96;100.00;95932.53;5005015;28;20550;-81
2021/08/31 10:10:16;;;;;;;16.30;9.90;;;;;;;14.11;100.00;95928.97;5023057;28;20041;-79
2021/08/31 10:12:42;;;;;;;16.73;10.48;;;;;;;14.38;100.00;95921.22;5026504;28;20045;-79
2021/08/31 10:15:09;;;;;;;17.73;10.00;;;;;;;14.73;97.98;95918.44;5002746;28;20041;-79
2021/08/31 10:17:34;;;;;;;13.60;9.07;;;;;;;15.25;97.73;95923.81;5009081;28;20414;-79
2021/08/31 10:20:02;;;;;;;15.10;9.88;;;;;;;15.38;99.41;95922.28;5005187;28;20037;-78
2021/08/31 10:22:29;;;;;;;11.57;7.55;;;;;;;15.41;92.36;95932.31;5018919;28;20060;-77
2021/08/31 10:24:55;;;;;;;9.90;6.68;;;;;;;15.74;91.89;95925.13;5027725;28;20052;-80
2021/08/31 10:27:36;;;;;;;12.98;7.45;;;;;;;16.01;95.93;95920.97;5027073;28;20042;-80
2021/08/31 10:30:35;;;;;;;10.88;6.95;;;;;;;16.32;96.73;95923.06;5007250;28;20245;-80
2021/08/31 10:33:04;;;;;;;11.35;7.10;;;;;;;16.20;91.83;95920.09;5005627;28;20155;-82
2021/08/31 10:35:35;;;;;;;12.00;6.93;;;;;;;16.09;94.10;95919.50;5026920;28;20041;-84
2021/08/31 10:38:03;;;;;;;11.18;6.15;;;;;;;15.70;89.60;95932.09;5008234;28;20045;-81
2021/08/31 10:40:33;;;;;;;8.68;5.70;;;;;;;15.47;95.07;95938.31;5026685;28;20074;-79
2021/08/31 10:43:00;;;;;;;9.57;6.60;;;;;;;15.29;94.20;95940.72;5032643;28;20065;-79
2021/08/31 10:45:29;;;;;;;8.90;5.65;;;;;;;15.11;93.60;95942.28;5025979;28;20499;-78
2021/08/31 10:47:55;;;;;;;10.35;5.88;;;;;;;14.95;91.86;95947.03;5025429;28;20052;-80
2021/08/31 10:50:23;;;;;;;11.77;5.90;;;;;;;14.63;95.51;95948.50;5027701;28;20067;-78
2021/08/31 10:52:56;;;;;;;8.75;5.75;;;;;;;14.51;91.96;95948.06;5002095;28;20037;-79
2021/08/31 10:55:24;;;;;;;9.98;5.63;;;;;;;14.41;95.48;95948.19;5021533;28;20565;-78
2021/08/31 10:57:54;;;;;;;8.88;5.40;;;;;;;14.46;96.09;95942.88;5020548;28;20115;-79
2021/08/31 11:00:20;;;;;;;9.50;5.38;;;;;;;14.31;93.30;95949.91;5034143;28;20124;-79
2021/08/31 11:02:45;;;;;;;9.80;5.20;;;;;;;14.18;95.00;95947.94;5001404;28;20049;-77
2021/08/31 11:05:20;;;;;;;7.80;5.40;;;;;;;14.06;97.55;95958.91;5010828;28;20499;-85
2021/08/31 11:08:06;;;;;;;8.98;5.60;;;;;;;13.88;94.79;95962.25;5026475;28;20045;-79
2021/08/31 11:10:34;;;;;;;9.25;5.07;;;;;;;13.81;96.93;95973.16;5013520;28;20057;-79
2021/08/31 11:13:11;;;;;;;9.32;5.07;;;;;;;13.69;96.48;95966.38;5012321;28;20049;-77
2021/08/31 11:15:38;;;;;;;9.10;4.90;;;;;;;13.53;95.91;95967.56;5031382;28;20132;-78